sensor_id;sensor_type;location;lat;lon;timestamp;temperature;humidity
11144;DHT22;5626;44.730;10.276;2022-11-02T05:02:37;13.00;99.90
11144;DHT22;5626;44.730;10.276;2022-11-02T05:05:08;13.00;99.90
11144;DHT22;5626;44.730;10.276;2022-11-02T05:07:39;12.90;99.90
11144;DHT22;5626;44.730;10.276;2022-11-02T05:10:09;12.90;99.90
11144;DHT22;5626;44.730;10.276;2022-11-02T05:12:40;12.90;99.90
11144;DHT22;5626;44.730;10.276;2022-11-02T05:15:11;12.80;99.90
11144;DHT22;5626;44.730;10.276;2022-11-02T05:17:42;12.80;99.90
11144;DHT22;5626;44.730;10.276;2022-11-02T05:20:12;12.80;99.90
11144;DHT22;5626;44.730;10.276;2022-11-02T05:22:43;12.80;99.90
11144;DHT22;5626;44.730;10.276;2022-11-02T05:25:14;12.80;99.90
11144;DHT22;5626;44.730;10.276;2022-11-02T05:27:44;12.80;99.90
11144;DHT22;5626;44.730;10.276;2022-11-02T05:30:14;12.80;99.90
11144;DHT22;5626;44.730;10.276;2022-11-02T05:32:45;12.80;99.90
11144;DHT22;5626;44.730;10.276;2022-11-02T05:35:15;12.80;99.90
11144;DHT22;5626;44.730;10.276;2022-11-02T05:37:45;12.80;99.90
11144;DHT22;5626;44.730;10.276;2022-11-02T05:40:15;12.80;99.90
11144;DHT22;5626;44.730;10.276;2022-11-02T05:42:44;12.70;99.90
11144;DHT22;5626;44.730;10.276;2022-11-02T05:45:14;12.70;99.90
11144;DHT22;5626;44.730;10.276;2022-11-02T05:47:47;12.70;99.90
11144;DHT22;5626;44.730;10.276;2022-11-02T05:50:16;12.70;99.90
11144;DHT22;5626;44.730;10.276;2022-11-02T05:52:46;12.60;99.90
11144;DHT22;5626;44.730;10.276;2022-11-02T05:55:15;12.60;99.90
11144;DHT22;5626;44.730;10.276;2022-11-02T05:57:49;12.60;99.90
11144;DHT22;5626;44.730;10.276;2022-11-02T06:00:20;12.50;99.90
11144;DHT22;5626;44.730;10.276;2022-11-02T06:02:56;12.50;99.90
11144;DHT22;5626;44.730;10.276;2022-11-02T06:05:26;12.40;99.90
11144;DHT22;5626;44.730;10.276;2022-11-02T06:07:59;12.40;99.90
11144;DHT22;5626;44.730;10.276;2022-11-02T06:10:29;12.40;99.90
11144;DHT22;5626;44.730;10.276;2022-11-02T06:13:00;12.50;99.90
11144;DHT22;5626;44.730;10.276;2022-11-02T06:15:31;12.40;99.90
11144;DHT22;5626;44.730;10.276;2022-11-02T06:18:02;12.40;99.90
11144;DHT22;5626;44.730;10.276;2022-11-02T06:20:32;12.50;99.90
11144;DHT22;5626;44.730;10.276;2022-11-02T06:23:01;12.50;99.90
11144;DHT22;5626;44.730;10.276;2022-11-02T06:25:31;12.50;99.90
11144;DHT22;5626;44.730;10.276;2022-11-02T06:28:00;12.50;99.90
11144;DHT22;5626;44.730;10.276;2022-11-02T06:30:31;12.50;99.90
11144;DHT22;5626;44.730;10.276;2022-11-02T06:33:03;12.60;99.90
11144;DHT22;5626;44.730;10.276;2022-11-02T06:35:33;12.70;99.90
11144;DHT22;5626;44.730;10.276;2022-11-02T06:38:03;12.70;99.90
11144;DHT22;5626;44.730;10.276;2022-11-02T06:40:32;12.80;99.90
11144;DHT22;5626;44.730;10.276;2022-11-02T06:43:02;12.80;99.90
11144;DHT22;5626;44.730;10.276;2022-11-02T06:45:42;12.80;99.90
11144;DHT22;5626;44.730;10.276;2022-11-02T06:48:12;12.80;99.90
11144;DHT22;5626;44.730;10.276;2022-11-02T06:50:42;12.80;99.90
11144;DHT22;5626;44.730;10.276;2022-11-02T06:53:12;12.80;99.90
11144;DHT22;5626;44.730;10.276;2022-11-02T06:55:41;12.80;99.90
11144;DHT22;5626;44.730;10.276;2022-11-02T06:58:11;12.90;99.90
11144;DHT22;5626;44.730;10.276;2022-11-02T07:00:41;12.90;99.90
11144;DHT22;5626;44.730;10.276;2022-11-02T07:03:11;13.00;99.90
11144;DHT22;5626;44.730;10.276;2022-11-02T07:05:41;13.00;99.90
11144;DHT22;5626;44.730;10.276;2022-11-02T07:08:11;13.00;99.90
11144;DHT22;5626;44.730;10.276;2022-11-02T07:10:40;13.10;99.90
11144;DHT22;5626;44.730;10.276;2022-11-02T07:13:09;13.20;99.90
11144;DHT22;5626;44.730;10.276;2022-11-02T07:15:39;13.30;99.90
11144;DHT22;5626;44.730;10.276;2022-11-02T07:18:09;13.30;99.90
11144;DHT22;5626;44.730;10.276;2022-11-02T07:20:41;13.50;99.90
11144;DHT22;5626;44.730;10.276;2022-11-02T07:23:10;13.60;99.90
11144;DHT22;5626;44.730;10.276;2022-11-02T07:25:40;13.80;99.90
11144;DHT22;5626;44.730;10.276;2022-11-02T07:28:09;14.00;99.90
11144;DHT22;5626;44.730;10.276;2022-11-02T07:30:38;14.20;99.90
11144;DHT22;5626;44.730;10.276;2022-11-02T07:33:08;14.30;99.90
11144;DHT22;5626;44.730;10.276;2022-11-02T07:35:37;14.50;99.90
11144;DHT22;5626;44.730;10.276;2022-11-02T07:38:10;14.70;99.90
11144;DHT22;5626;44.730;10.276;2022-11-02T07:40:39;15.50;99.90
11144;DHT22;5626;44.730;10.276;2022-11-02T07:43:09;17.50;99.90
11144;DHT22;5626;44.730;10.276;2022-11-02T07:45:47;19.00;99.60
11144;DHT22;5626;44.730;10.276;2022-11-02T07:48:17;18.40;98.80
11144;DHT22;5626;44.730;10.276;2022-11-02T07:50:46;17.60;99.30
11144;DHT22;5626;44.730;10.276;2022-11-02T07:53:17;17.00;99.80
11144;DHT22;5626;44.730;10.276;2022-11-02T07:55:46;16.70;99.90
11144;DHT22;5626;44.730;10.276;2022-11-02T07:58:16;16.40;99.90
11144;DHT22;5626;44.730;10.276;2022-11-02T08:00:45;16.20;99.90
11144;DHT22;5626;44.730;10.276;2022-11-02T08:03:15;16.00;99.90
11144;DHT22;5626;44.730;10.276;2022-11-02T08:05:44;15.70;99.90
11144;DHT22;5626;44.730;10.276;2022-11-02T08:08:15;15.60;99.90
11144;DHT22;5626;44.730;10.276;2022-11-02T08:10:49;15.40;99.90
11144;DHT22;5626;44.730;10.276;2022-11-02T08:13:20;15.50;99.90
11144;DHT22;5626;44.730;10.276;2022-11-02T08:15:51;15.40;99.90
11144;DHT22;5626;44.730;10.276;2022-11-02T08:18:21;15.30;99.90
11144;DHT22;5626;44.730;10.276;2022-11-02T08:20:51;15.30;99.90
11144;DHT22;5626;44.730;10.276;2022-11-02T08:23:24;15.20;99.90
11144;DHT22;5626;44.730;10.276;2022-11-02T08:25:58;15.10;99.90
11144;DHT22;5626;44.730;10.276;2022-11-02T08:28:29;15.00;99.90
11144;DHT22;5626;44.730;10.276;2022-11-02T08:30:59;15.00;99.90
11144;DHT22;5626;44.730;10.276;2022-11-02T08:33:28;14.90;99.90
11144;DHT22;5626;44.730;10.276;2022-11-02T08:36:01;14.80;99.90
11144;DHT22;5626;44.730;10.276;2022-11-02T08:38:31;14.80;99.90
11144;DHT22;5626;44.730;10.276;2022-11-02T08:41:02;14.70;99.90
11144;DHT22;5626;44.730;10.276;2022-11-02T08:43:32;14.60;99.90
11144;DHT22;5626;44.730;10.276;2022-11-02T08:46:02;14.60;99.90
11144;DHT22;5626;44.730;10.276;2022-11-02T08:48:46;14.60;99.90
11144;DHT22;5626;44.730;10.276;2022-11-02T08:51:16;14.60;99.90
11144;DHT22;5626;44.730;10.276;2022-11-02T08:53:45;14.60;99.90
11144;DHT22;5626;44.730;10.276;2022-11-02T08:56:19;14.50;99.90
11144;DHT22;5626;44.730;10.276;2022-11-02T08:58:48;14.50;99.90
11144;DHT22;5626;44.730;10.276;2022-11-02T09:01:18;14.50;99.90
11144;DHT22;5626;44.730;10.276;2022-11-02T09:03:47;14.70;99.90
11144;DHT22;5626;44.730;10.276;2022-11-02T09:06:17;15.10;99.90
11144;DHT22;5626;44.730;10.276;2022-11-02T09:08:46;15.50;99.90
11144;DHT22;5626;44.730;10.276;2022-11-02T09:11:16;15.70;99.90
11144;DHT22;5626;44.730;10.276;2022-11-02T09:13:47;15.70;99.90
11144;DHT22;5626;44.730;10.276;2022-11-02T09:16:19;15.60;99.90
11144;DHT22;5626;44.730;10.276;2022-11-02T09:18:49;15.60;99.90
11144;DHT22;5626;44.730;10.276;2022-11-02T09:21:18;15.60;99.90
11144;DHT22;5626;44.730;10.276;2022-11-02T09:23:47;15.60;99.90
11144;DHT22;5626;44.730;10.276;2022-11-02T09:26:17;15.70;99.90
11144;DHT22;5626;44.730;10.276;2022-11-02T09:28:48;15.80;99.90
11144;DHT22;5626;44.730;10.276;2022-11-02T09:31:18;16.10;99.90
11144;DHT22;5626;44.730;10.276;2022-11-02T09:33:47;16.40;99.90
11144;DHT22;5626;44.730;10.276;2022-11-02T09:36:16;16.70;99.90
11144;DHT22;5626;44.730;10.276;2022-11-02T09:38:46;16.90;99.90
11144;DHT22;5626;44.730;10.276;2022-11-02T09:41:20;16.80;99.90
11144;DHT22;5626;44.730;10.276;2022-11-02T09:43:59;16.70;99.90
11144;DHT22;5626;44.730;10.276;2022-11-02T09:46:32;16.70;99.90
11144;DHT22;5626;44.730;10.276;2022-11-02T10:01:54;16.80;99.90
11144;DHT22;5626;44.730;10.276;2022-11-02T10:04:54;16.80;99.90
11144;DHT22;5626;44.730;10.276;2022-11-02T10:07:34;16.90;99.90
11144;DHT22;5626;44.730;10.276;2022-11-02T10:10:12;17.00;99.90
11144;DHT22;5626;44.730;10.276;2022-11-02T10:12:51;17.00;99.90
11144;DHT22;5626;44.730;10.276;2022-11-02T10:15:31;17.00;99.90
11144;DHT22;5626;44.730;10.276;2022-11-02T10:18:07;17.10;99.90
11144;DHT22;5626;44.730;10.276;2022-11-02T10:20:43;17.10;99.90
11144;DHT22;5626;44.730;10.276;2022-11-02T10:23:17;17.00;99.90
11144;DHT22;5626;44.730;10.276;2022-11-02T10:25:47;17.00;99.90
11144;DHT22;5626;44.730;10.276;2022-11-02T10:28:19;17.00;99.90
11144;DHT22;5626;44.730;10.276;2022-11-02T10:30:51;17.00;99.90
11144;DHT22;5626;44.730;10.276;2022-11-02T10:33:27;17.00;99.90
11144;DHT22;5626;44.730;10.276;2022-11-02T10:36:08;17.10;99.90
11144;DHT22;5626;44.730;10.276;2022-11-02T10:38:55;17.10;99.90
11144;DHT22;5626;44.730;10.276;2022-11-02T10:41:44;17.20;99.90
11144;DHT22;5626;44.730;10.276;2022-11-02T10:44:32;17.40;99.90
11144;DHT22;5626;44.730;10.276;2022-11-02T10:47:12;17.50;99.90
11144;DHT22;5626;44.730;10.276;2022-11-02T10:50:12;17.50;99.90
11144;DHT22;5626;44.730;10.276;2022-11-02T10:52:45;17.50;99.90
11144;DHT22;5626;44.730;10.276;2022-11-02T10:55:22;17.60;99.90
11144;DHT22;5626;44.730;10.276;2022-11-02T10:57:55;17.60;99.90
11144;DHT22;5626;44.730;10.276;2022-11-02T11:00:29;17.70;99.90
11144;DHT22;5626;44.730;10.276;2022-11-02T11:03:08;17.90;99.90
11144;DHT22;5626;44.730;10.276;2022-11-02T11:05:54;18.00;99.90
11144;DHT22;5626;44.730;10.276;2022-11-02T11:08:34;18.10;99.90
11144;DHT22;5626;44.730;10.276;2022-11-02T11:11:12;18.10;99.90
11144;DHT22;5626;44.730;10.276;2022-11-02T11:13:44;18.00;99.90
11144;DHT22;5626;44.730;10.276;2022-11-02T11:16:39;18.00;99.90
11144;DHT22;5626;44.730;10.276;2022-11-02T11:19:20;18.00;99.90
11144;DHT22;5626;44.730;10.276;2022-11-02T11:22:23;18.00;99.90
11144;DHT22;5626;44.730;10.276;2022-11-02T11:25:14;18.10;99.90
11144;DHT22;5626;44.730;10.276;2022-11-02T11:27:50;18.20;99.90
11144;DHT22;5626;44.730;10.276;2022-11-02T11:30:25;18.20;99.90
11144;DHT22;5626;44.730;10.276;2022-11-02T11:33:06;18.20;99.90
11144;DHT22;5626;44.730;10.276;2022-11-02T11:35:47;18.20;99.90
11144;DHT22;5626;44.730;10.276;2022-11-02T11:38:21;18.30;99.90
11144;DHT22;5626;44.730;10.276;2022-11-02T11:40:54;18.30;99.90
11144;DHT22;5626;44.730;10.276;2022-11-02T11:43:27;18.30;99.90
11144;DHT22;5626;44.730;10.276;2022-11-02T11:46:00;18.50;99.90
11144;DHT22;5626;44.730;10.276;2022-11-02T11:48:35;18.70;99.90
11144;DHT22;5626;44.730;10.276;2022-11-02T11:51:27;18.70;99.90
11144;DHT22;5626;44.730;10.276;2022-11-02T11:54:24;18.70;99.90
11144;DHT22;5626;44.730;10.276;2022-11-02T11:56:56;18.50;99.90
11144;DHT22;5626;44.730;10.276;2022-11-02T11:59:30;18.50;99.90
11144;DHT22;5626;44.730;10.276;2022-11-02T12:02:21;18.40;99.90
11144;DHT22;5626;44.730;10.276;2022-11-02T12:04:58;18.40;99.90
11144;DHT22;5626;44.730;10.276;2022-11-02T12:07:58;18.30;99.90
11144;DHT22;5626;44.730;10.276;2022-11-02T12:10:41;18.40;99.90
11144;DHT22;5626;44.730;10.276;2022-11-02T12:13:25;18.60;99.90
11144;DHT22;5626;44.730;10.276;2022-11-02T12:16:10;18.70;99.90
11144;DHT22;5626;44.730;10.276;2022-11-02T12:18:57;18.80;99.90
11144;DHT22;5626;44.730;10.276;2022-11-02T12:21:43;19.00;99.90
11144;DHT22;5626;44.730;10.276;2022-11-02T12:24:28;19.30;99.90
11144;DHT22;5626;44.730;10.276;2022-11-02T12:27:11;19.30;99.90
11144;DHT22;5626;44.730;10.276;2022-11-02T12:29:58;19.40;99.90
11144;DHT22;5626;44.730;10.276;2022-11-02T12:32:47;19.40;99.90
11144;DHT22;5626;44.730;10.276;2022-11-02T12:35:48;19.00;99.60
11144;DHT22;5626;44.730;10.276;2022-11-02T12:38:39;18.50;99.90
11144;DHT22;5626;44.730;10.276;2022-11-02T12:41:19;18.10;99.90
11144;DHT22;5626;44.730;10.276;2022-11-02T12:44:01;17.80;99.90
11144;DHT22;5626;44.730;10.276;2022-11-02T12:46:40;17.50;99.90
11144;DHT22;5626;44.730;10.276;2022-11-02T12:49:26;17.50;99.90
11144;DHT22;5626;44.730;10.276;2022-11-02T12:52:10;17.50;99.90
11144;DHT22;5626;44.730;10.276;2022-11-02T12:54:46;17.50;99.90
11144;DHT22;5626;44.730;10.276;2022-11-02T12:57:19;17.60;99.90
11144;DHT22;5626;44.730;10.276;2022-11-02T12:59:52;17.80;99.90
11144;DHT22;5626;44.730;10.276;2022-11-02T13:02:26;18.10;99.90
11144;DHT22;5626;44.730;10.276;2022-11-02T13:05:05;18.30;99.90
11144;DHT22;5626;44.730;10.276;2022-11-02T13:07:40;18.60;99.90
11144;DHT22;5626;44.730;10.276;2022-11-02T13:10:15;18.70;99.90
11144;DHT22;5626;44.730;10.276;2022-11-02T13:12:48;18.80;99.90
11144;DHT22;5626;44.730;10.276;2022-11-02T13:15:23;18.90;99.90
11144;DHT22;5626;44.730;10.276;2022-11-02T13:17:56;19.00;99.90
11144;DHT22;5626;44.730;10.276;2022-11-02T13:20:28;19.00;99.90
11144;DHT22;5626;44.730;10.276;2022-11-02T13:23:02;19.00;99.90
11144;DHT22;5626;44.730;10.276;2022-11-02T13:25:35;19.10;99.90
11144;DHT22;5626;44.730;10.276;2022-11-02T13:28:11;19.20;99.90
11144;DHT22;5626;44.730;10.276;2022-11-02T13:30:44;19.20;99.90
11144;DHT22;5626;44.730;10.276;2022-11-02T13:33:19;19.10;99.90
11144;DHT22;5626;44.730;10.276;2022-11-02T13:35:50;18.80;99.90
11144;DHT22;5626;44.730;10.276;2022-11-02T13:38:28;18.50;99.90
11144;DHT22;5626;44.730;10.276;2022-11-02T13:41:35;18.10;99.90
11144;DHT22;5626;44.730;10.276;2022-11-02T13:44:54;17.80;99.90
11144;DHT22;5626;44.730;10.276;2022-11-02T13:47:42;17.50;99.90
11144;DHT22;5626;44.730;10.276;2022-11-02T13:50:20;17.30;99.90
11144;DHT22;5626;44.730;10.276;2022-11-02T13:52:55;17.20;99.90
11144;DHT22;5626;44.730;10.276;2022-11-02T13:55:36;17.10;99.90
11144;DHT22;5626;44.730;10.276;2022-11-02T13:58:20;17.00;99.90
11144;DHT22;5626;44.730;10.276;2022-11-02T14:00:52;16.90;99.90
11144;DHT22;5626;44.730;10.276;2022-11-02T14:03:25;16.90;99.90
11144;DHT22;5626;44.730;10.276;2022-11-02T14:05:58;16.70;99.90
11144;DHT22;5626;44.730;10.276;2022-11-02T14:08:33;16.70;99.90
11144;DHT22;5626;44.730;10.276;2022-11-02T14:14:13;16.60;99.90
11144;DHT22;5626;44.730;10.276;2022-11-02T14:16:45;16.60;99.90
11144;DHT22;5626;44.730;10.276;2022-11-02T14:19:31;16.60;99.90
11144;DHT22;5626;44.730;10.276;2022-11-02T14:22:17;16.50;99.90
11144;DHT22;5626;44.730;10.276;2022-11-02T14:25:14;16.50;99.90
11144;DHT22;5626;44.730;10.276;2022-11-02T14:27:44;16.50;99.90
11144;DHT22;5626;44.730;10.276;2022-11-02T14:30:41;16.50;99.90
11144;DHT22;5626;44.730;10.276;2022-11-02T14:36:27;16.40;99.90
11144;DHT22;5626;44.730;10.276;2022-11-02T14:39:11;16.40;99.90
11144;DHT22;5626;44.730;10.276;2022-11-02T14:42:01;16.40;99.90
11144;DHT22;5626;44.730;10.276;2022-11-02T14:47:27;16.40;99.90
11144;DHT22;5626;44.730;10.276;2022-11-02T14:50:02;16.30;99.90
11144;DHT22;5626;44.730;10.276;2022-11-02T14:52:37;16.30;99.90
11144;DHT22;5626;44.730;10.276;2022-11-02T14:55:18;16.20;99.90
11144;DHT22;5626;44.730;10.276;2022-11-02T14:57:52;16.20;99.90
11144;DHT22;5626;44.730;10.276;2022-11-02T15:00:26;16.20;99.90
11144;DHT22;5626;44.730;10.276;2022-11-02T15:02:57;16.20;99.90
11144;DHT22;5626;44.730;10.276;2022-11-02T15:05:30;16.20;99.90
11144;DHT22;5626;44.730;10.276;2022-11-02T15:08:03;16.20;99.90
11144;DHT22;5626;44.730;10.276;2022-11-02T15:10:37;16.10;99.90
11144;DHT22;5626;44.730;10.276;2022-11-02T15:13:33;16.10;99.90
11144;DHT22;5626;44.730;10.276;2022-11-02T15:16:24;16.10;99.90
11144;DHT22;5626;44.730;10.276;2022-11-02T15:18:53;16.10;99.90
11144;DHT22;5626;44.730;10.276;2022-11-02T15:21:28;16.10;99.90
11144;DHT22;5626;44.730;10.276;2022-11-02T15:24:20;16.10;99.90
11144;DHT22;5626;44.730;10.276;2022-11-02T15:26:55;16.10;99.90
11144;DHT22;5626;44.730;10.276;2022-11-02T15:29:36;16.10;99.90
11144;DHT22;5626;44.730;10.276;2022-11-02T15:32:15;16.10;99.90
11144;DHT22;5626;44.730;10.276;2022-11-02T15:34:50;16.10;99.90
11144;DHT22;5626;44.730;10.276;2022-11-02T15:37:23;16.10;99.90
11144;DHT22;5626;44.730;10.276;2022-11-02T15:39:57;16.10;99.90
11144;DHT22;5626;44.730;10.276;2022-11-02T15:42:41;16.10;99.90
11144;DHT22;5626;44.730;10.276;2022-11-02T15:45:19;16.00;99.90
11144;DHT22;5626;44.730;10.276;2022-11-02T15:48:19;16.00;99.90
11144;DHT22;5626;44.730;10.276;2022-11-02T15:50:59;16.00;99.90
11144;DHT22;5626;44.730;10.276;2022-11-02T15:53:45;16.00;99.90
11144;DHT22;5626;44.730;10.276;2022-11-02T15:56:34;16.00;99.90
11144;DHT22;5626;44.730;10.276;2022-11-02T16:02:24;15.90;99.90
11144;DHT22;5626;44.730;10.276;2022-11-02T16:04:56;15.90;99.90
11144;DHT22;5626;44.730;10.276;2022-11-02T16:07:27;15.80;99.90
11144;DHT22;5626;44.730;10.276;2022-11-02T16:10:23;15.80;99.90
11144;DHT22;5626;44.730;10.276;2022-11-02T16:13:09;15.80;99.90
11144;DHT22;5626;44.730;10.276;2022-11-02T16:15:40;15.80;99.90
11144;DHT22;5626;44.730;10.276;2022-11-02T16:18:23;15.80;99.90
11144;DHT22;5626;44.730;10.276;2022-11-02T16:20:55;15.70;99.90
11144;DHT22;5626;44.730;10.276;2022-11-02T16:23:28;15.70;99.90
11144;DHT22;5626;44.730;10.276;2022-11-02T16:25:59;15.70;99.90
11144;DHT22;5626;44.730;10.276;2022-11-02T16:28:32;15.70;99.90
11144;DHT22;5626;44.730;10.276;2022-11-02T16:31:06;15.60;99.90
11144;DHT22;5626;44.730;10.276;2022-11-02T16:33:42;15.60;99.90
11144;DHT22;5626;44.730;10.276;2022-11-02T16:36:14;15.60;99.90
11144;DHT22;5626;44.730;10.276;2022-11-02T16:38:56;15.60;99.90
11144;DHT22;5626;44.730;10.276;2022-11-02T16:41:28;15.60;99.90
11144;DHT22;5626;44.730;10.276;2022-11-02T16:44:06;15.50;99.90
11144;DHT22;5626;44.730;10.276;2022-11-02T16:46:41;15.60;99.90
11144;DHT22;5626;44.730;10.276;2022-11-02T16:49:13;15.60;99.90
11144;DHT22;5626;44.730;10.276;2022-11-02T16:51:53;15.60;99.90
11144;DHT22;5626;44.730;10.276;2022-11-02T16:54:29;15.60;99.90
11144;DHT22;5626;44.730;10.276;2022-11-02T16:57:02;15.60;99.90
11144;DHT22;5626;44.730;10.276;2022-11-02T16:59:37;15.60;99.90
11144;DHT22;5626;44.730;10.276;2022-11-02T17:02:14;15.60;99.90
11144;DHT22;5626;44.730;10.276;2022-11-02T17:04:46;15.60;99.90
11144;DHT22;5626;44.730;10.276;2022-11-02T17:07:19;15.60;99.90
11144;DHT22;5626;44.730;10.276;2022-11-02T17:09:52;15.60;99.90
11144;DHT22;5626;44.730;10.276;2022-11-02T17:12:29;15.60;99.90
11144;DHT22;5626;44.730;10.276;2022-11-02T17:15:10;15.60;99.90
11144;DHT22;5626;44.730;10.276;2022-11-02T17:17:40;15.60;99.90
11144;DHT22;5626;44.730;10.276;2022-11-02T17:20:22;15.60;99.90
11144;DHT22;5626;44.730;10.276;2022-11-02T17:22:55;15.60;99.90
11144;DHT22;5626;44.730;10.276;2022-11-02T17:25:27;15.50;99.90
11144;DHT22;5626;44.730;10.276;2022-11-02T17:27:58;15.50;99.90
11144;DHT22;5626;44.730;10.276;2022-11-02T17:30:46;15.50;99.90
11144;DHT22;5626;44.730;10.276;2022-11-02T17:33:25;15.50;99.90
11144;DHT22;5626;44.730;10.276;2022-11-02T17:35:56;15.40;99.90
11144;DHT22;5626;44.730;10.276;2022-11-02T17:38:31;15.40;99.90
11144;DHT22;5626;44.730;10.276;2022-11-02T17:41:02;15.40;99.90
11144;DHT22;5626;44.730;10.276;2022-11-02T17:43:52;15.40;99.90
11144;DHT22;5626;44.730;10.276;2022-11-02T17:46:22;15.40;99.90
11144;DHT22;5626;44.730;10.276;2022-11-02T17:48:52;15.30;99.90
11144;DHT22;5626;44.730;10.276;2022-11-02T17:51:23;15.30;99.90
11144;DHT22;5626;44.730;10.276;2022-11-02T17:53:53;15.30;99.90
11144;DHT22;5626;44.730;10.276;2022-11-02T17:56:23;15.30;99.90
11144;DHT22;5626;44.730;10.276;2022-11-02T17:58:53;15.30;99.90
11144;DHT22;5626;44.730;10.276;2022-11-02T18:01:24;15.30;99.90
11144;DHT22;5626;44.730;10.276;2022-11-02T18:03:54;15.40;99.90
11144;DHT22;5626;44.730;10.276;2022-11-02T18:06:24;15.60;99.90
11144;DHT22;5626;44.730;10.276;2022-11-02T18:08:54;15.80;99.90
11144;DHT22;5626;44.730;10.276;2022-11-02T18:11:39;16.00;99.90
11144;DHT22;5626;44.730;10.276;2022-11-02T18:14:12;16.10;99.90
11144;DHT22;5626;44.730;10.276;2022-11-02T18:16:45;16.30;99.90
11144;DHT22;5626;44.730;10.276;2022-11-02T18:19:16;16.40;99.90
11144;DHT22;5626;44.730;10.276;2022-11-02T18:21:45;16.50;99.90
11144;DHT22;5626;44.730;10.276;2022-11-02T18:24:16;16.50;99.90
11144;DHT22;5626;44.730;10.276;2022-11-02T18:26:47;16.40;99.90
11144;DHT22;5626;44.730;10.276;2022-11-02T18:29:17;16.30;99.90
11144;DHT22;5626;44.730;10.276;2022-11-02T18:31:49;16.20;99.90
11144;DHT22;5626;44.730;10.276;2022-11-02T18:34:18;16.10;99.90
11144;DHT22;5626;44.730;10.276;2022-11-02T18:36:48;16.00;99.90
11144;DHT22;5626;44.730;10.276;2022-11-02T18:39:18;15.90;99.90
11144;DHT22;5626;44.730;10.276;2022-11-02T18:41:47;15.90;99.90
11144;DHT22;5626;44.730;10.276;2022-11-02T18:44:18;15.90;99.90
11144;DHT22;5626;44.730;10.276;2022-11-02T18:46:49;15.80;99.90
11144;DHT22;5626;44.730;10.276;2022-11-02T18:49:19;15.80;99.90
11144;DHT22;5626;44.730;10.276;2022-11-02T18:51:48;15.80;99.90
11144;DHT22;5626;44.730;10.276;2022-11-02T18:54:18;15.80;99.90
11144;DHT22;5626;44.730;10.276;2022-11-02T18:56:48;15.80;99.90
11144;DHT22;5626;44.730;10.276;2022-11-02T18:59:18;15.90;99.90
11144;DHT22;5626;44.730;10.276;2022-11-02T19:01:48;16.10;99.90
11144;DHT22;5626;44.730;10.276;2022-11-02T19:04:19;16.10;99.90
11144;DHT22;5626;44.730;10.276;2022-11-02T19:06:48;16.30;99.90
11144;DHT22;5626;44.730;10.276;2022-11-02T19:09:36;16.40;99.90
11144;DHT22;5626;44.730;10.276;2022-11-02T19:12:10;16.50;99.90
11144;DHT22;5626;44.730;10.276;2022-11-02T19:14:48;16.60;99.90
11144;DHT22;5626;44.730;10.276;2022-11-02T19:17:23;16.70;99.90
11144;DHT22;5626;44.730;10.276;2022-11-02T19:19:53;16.80;99.90
11144;DHT22;5626;44.730;10.276;2022-11-02T19:22:24;16.90;99.90
11144;DHT22;5626;44.730;10.276;2022-11-02T19:24:54;16.90;99.90
11144;DHT22;5626;44.730;10.276;2022-11-02T19:27:24;17.00;99.90
11144;DHT22;5626;44.730;10.276;2022-11-02T19:29:54;17.00;99.90
11144;DHT22;5626;44.730;10.276;2022-11-02T19:32:25;17.00;99.90
11144;DHT22;5626;44.730;10.276;2022-11-02T19:34:55;17.00;99.90
11144;DHT22;5626;44.730;10.276;2022-11-02T19:37:27;17.00;99.90
11144;DHT22;5626;44.730;10.276;2022-11-02T19:40:00;17.00;99.90
11144;DHT22;5626;44.730;10.276;2022-11-02T19:42:30;17.10;99.90
11144;DHT22;5626;44.730;10.276;2022-11-02T19:45:01;17.10;99.90
11144;DHT22;5626;44.730;10.276;2022-11-02T19:47:33;17.00;99.90
11144;DHT22;5626;44.730;10.276;2022-11-02T19:50:03;17.00;99.90
11144;DHT22;5626;44.730;10.276;2022-11-02T19:52:34;17.00;99.90
11144;DHT22;5626;44.730;10.276;2022-11-02T19:55:05;17.00;99.90
11144;DHT22;5626;44.730;10.276;2022-11-02T19:57:35;17.00;99.90
11144;DHT22;5626;44.730;10.276;2022-11-02T20:00:07;17.10;99.90
11144;DHT22;5626;44.730;10.276;2022-11-02T20:02:39;17.10;99.90
11144;DHT22;5626;44.730;10.276;2022-11-02T20:05:09;17.10;99.90
11144;DHT22;5626;44.730;10.276;2022-11-02T20:07:41;17.10;99.90
11144;DHT22;5626;44.730;10.276;2022-11-02T20:10:11;17.10;99.90
11144;DHT22;5626;44.730;10.276;2022-11-02T20:12:41;17.10;99.90
11144;DHT22;5626;44.730;10.276;2022-11-02T20:15:12;17.10;99.90
11144;DHT22;5626;44.730;10.276;2022-11-02T20:17:44;17.10;99.90
11144;DHT22;5626;44.730;10.276;2022-11-02T20:20:25;17.10;99.90
11144;DHT22;5626;44.730;10.276;2022-11-02T20:22:55;17.10;99.90
11144;DHT22;5626;44.730;10.276;2022-11-02T20:25:26;17.10;99.90
11144;DHT22;5626;44.730;10.276;2022-11-02T20:27:56;17.10;99.90
11144;DHT22;5626;44.730;10.276;2022-11-02T20:30:29;17.10;99.90
11144;DHT22;5626;44.730;10.276;2022-11-02T20:33:01;17.10;99.90
11144;DHT22;5626;44.730;10.276;2022-11-02T20:35:33;17.10;99.90
11144;DHT22;5626;44.730;10.276;2022-11-02T20:38:03;17.10;99.90
11144;DHT22;5626;44.730;10.276;2022-11-02T20:40:33;17.10;99.90
11144;DHT22;5626;44.730;10.276;2022-11-02T20:43:08;17.10;99.90
11144;DHT22;5626;44.730;10.276;2022-11-02T20:45:44;17.10;99.90
11144;DHT22;5626;44.730;10.276;2022-11-02T20:48:15;16.80;99.90
11144;DHT22;5626;44.730;10.276;2022-11-02T20:50:45;16.70;99.90
11144;DHT22;5626;44.730;10.276;2022-11-02T20:53:15;16.50;99.90
11144;DHT22;5626;44.730;10.276;2022-11-02T20:55:46;16.30;99.90
11144;DHT22;5626;44.730;10.276;2022-11-02T20:58:17;16.20;99.90
11144;DHT22;5626;44.730;10.276;2022-11-02T21:00:47;16.10;99.90
11144;DHT22;5626;44.730;10.276;2022-11-02T21:03:19;16.00;99.90
11144;DHT22;5626;44.730;10.276;2022-11-02T21:05:49;15.90;99.90
11144;DHT22;5626;44.730;10.276;2022-11-02T21:08:19;15.80;99.90
11144;DHT22;5626;44.730;10.276;2022-11-02T21:10:57;15.80;99.90
11144;DHT22;5626;44.730;10.276;2022-11-02T21:13:27;15.80;99.90
11144;DHT22;5626;44.730;10.276;2022-11-02T21:16:15;15.70;99.90
11144;DHT22;5626;44.730;10.276;2022-11-02T21:18:46;15.60;99.90
11144;DHT22;5626;44.730;10.276;2022-11-02T21:21:17;15.60;99.90
11144;DHT22;5626;44.730;10.276;2022-11-02T21:23:47;15.50;99.90
11144;DHT22;5626;44.730;10.276;2022-11-02T21:26:17;15.50;99.90
11144;DHT22;5626;44.730;10.276;2022-11-02T21:28:46;15.50;99.90
11144;DHT22;5626;44.730;10.276;2022-11-02T21:31:18;15.50;99.90
11144;DHT22;5626;44.730;10.276;2022-11-02T21:33:50;15.50;99.90
11144;DHT22;5626;44.730;10.276;2022-11-02T21:36:20;15.50;99.90
11144;DHT22;5626;44.730;10.276;2022-11-02T21:38:50;15.50;99.90
11144;DHT22;5626;44.730;10.276;2022-11-02T21:41:22;15.40;99.90
11144;DHT22;5626;44.730;10.276;2022-11-02T21:43:55;15.40;99.90